Time;durP1;ratioP1;P1;durP2;ratioP2;P2;SDS_P1;SDS_P2;PMS_P1;PMS_P2;Temp;Humidity;BMP_temperature;BMP_pressure;BME280_temperature;BME280_humidity;BME280_pressure;Samples;Min_cycle;Max_cycle;Signal;HPM_P1;HPM_P2
2022/08/11 00:00:39;;;;;;;13.27;6.60;;;19.60;99.90;;;;;;5072501;28;20087;-68
2022/08/11 00:03:07;;;;;;;12.07;6.43;;;19.50;99.90;;;;;;5070031;28;20033;-68
2022/08/11 00:05:46;;;;;;;11.88;6.72;;;19.50;99.90;;;;;;5061288;28;20073;-67
2022/08/11 00:08:23;;;;;;;12.98;6.47;;;19.50;99.90;;;;;;5072523;28;20074;-69
2022/08/11 00:11:00;;;;;;;13.52;7.03;;;19.40;99.90;;;;;;5071972;28;20362;-71
2022/08/11 00:13:39;;;;;;;14.38;7.60;;;19.40;99.90;;;;;;5072501;28;20454;-68
2022/08/11 00:16:15;;;;;;;14.60;7.30;;;19.40;99.90;;;;;;5064629;28;20021;-68
2022/08/11 00:18:47;;;;;;;12.30;6.68;;;19.40;99.90;;;;;;5052484;28;20021;-67
2022/08/11 00:21:13;;;;;;;;;;;19.40;99.90;;;;;;5052312;28;20455;-70
2022/08/11 00:23:51;;;;;;;12.10;6.63;;;19.40;99.90;;;;;;5069731;28;20011;-67
2022/08/11 00:26:18;;;;;;;15.43;7.13;;;19.30;99.90;;;;;;5072367;28;20505;-69
2022/08/11 00:28:43;;;;;;;12.88;6.25;;;19.30;99.90;;;;;;5072116;28;20194;-70
2022/08/11 00:31:26;;;;;;;16.20;6.93;;;19.30;99.90;;;;;;5072063;28;20025;-70
2022/08/11 00:33:51;;;;;;;;;;;19.30;99.90;;;;;;5072950;28;20458;-68
2022/08/11 00:36:19;;;;;;;14.05;7.35;;;19.30;99.90;;;;;;5072643;28;19900;-69
2022/08/11 00:38:50;;;;;;;17.45;7.70;;;19.20;99.90;;;;;;5056932;28;20448;-72
2022/08/11 00:42:09;;;;;;;13.93;6.95;;;19.20;99.90;;;;;;5052346;28;20119;-68
2022/08/11 00:44:52;;;;;;;17.65;7.55;;;19.20;99.90;;;;;;5050060;28;20480;-68
2022/08/11 00:47:35;;;;;;;13.80;6.95;;;19.20;99.90;;;;;;5052583;28;20044;-68
2022/08/11 00:50:33;;;;;;;11.63;6.65;;;19.20;99.90;;;;;;5052609;28;20029;-69
2022/08/11 00:53:24;;;;;;;14.60;7.32;;;19.20;99.90;;;;;;5052244;28;20029;-68
2022/08/11 00:56:24;;;;;;;14.05;7.90;;;19.20;99.90;;;;;;5052394;28;20119;-68
2022/08/11 00:59:20;;;;;;;13.45;7.20;;;19.20;99.90;;;;;;5058070;28;20051;-71
2022/08/11 01:02:08;;;;;;;18.50;7.53;;;19.20;99.90;;;;;;5071976;28;20099;-70
2022/08/11 01:05:04;;;;;;;12.90;6.57;;;19.20;99.90;;;;;;5066396;28;20443;-68
2022/08/11 01:08:05;;;;;;;15.18;7.50;;;19.20;99.90;;;;;;5072077;28;20074;-70
2022/08/11 01:10:58;;;;;;;16.33;7.10;;;19.20;99.90;;;;;;5029435;28;20021;-68
2022/08/11 01:14:00;;;;;;;14.45;7.60;;;19.10;99.90;;;;;;5070824;28;20040;-68
2022/08/11 01:16:44;;;;;;;12.82;7.05;;;19.10;99.90;;;;;;5072060;28;20036;-69
2022/08/11 01:19:47;;;;;;;13.52;7.22;;;19.10;99.90;;;;;;5072191;28;20017;-69
2022/08/11 01:22:30;;;;;;;14.48;7.38;;;19.10;99.90;;;;;;5075502;28;20085;-69
2022/08/11 01:25:13;;;;;;;14.73;8.23;;;19.00;99.90;;;;;;5075110;28;20041;-68
2022/08/11 01:28:17;;;;;;;15.10;7.65;;;19.00;99.90;;;;;;5075584;28;20028;-68
2022/08/11 01:31:19;;;;;;;15.70;8.05;;;19.00;99.90;;;;;;5075393;28;20028;-68
2022/08/11 01:34:00;;;;;;;16.98;8.45;;;19.00;99.90;;;;;;5075305;28;20035;-68
2022/08/11 01:36:58;;;;;;;17.30;7.70;;;19.00;99.90;;;;;;5074957;28;20024;-71
2022/08/11 01:39:55;;;;;;;17.40;8.07;;;19.00;99.90;;;;;;5073836;28;20307;-71
2022/08/11 01:45:31;;;;;;;14.00;7.15;;;19.00;99.90;;;;;;5074815;28;20043;-71
2022/08/11 01:48:15;;;;;;;13.65;7.88;;;19.00;99.90;;;;;;5075085;28;20410;-68
2022/08/11 01:51:16;;;;;;;14.90;7.32;;;18.90;99.90;;;;;;5074449;28;20047;-68
2022/08/11 01:53:41;;;;;;;16.40;8.35;;;19.00;99.90;;;;;;5074477;28;20055;-68
2022/08/11 01:56:16;;;;;;;16.67;8.32;;;19.00;99.90;;;;;;5073283;28;20056;-68
2022/08/11 01:58:48;;;;;;;16.40;8.25;;;18.90;99.90;;;;;;5069419;28;20458;-70
2022/08/11 02:01:32;;;;;;;;;;;19.00;99.90;;;;;;5055113;28;20016;-71
2022/08/11 02:04:28;;;;;;;16.60;8.07;;;18.90;99.90;;;;;;5054339;28;19955;-68
2022/08/11 02:07:08;;;;;;;14.13;8.30;;;18.90;99.90;;;;;;5054445;28;20044;-72
2022/08/11 02:09:46;;;;;;;18.27;9.18;;;18.90;99.90;;;;;;5053988;28;20069;-68
2022/08/11 02:12:17;;;;;;;16.65;8.27;;;18.90;99.90;;;;;;5054174;28;20500;-68
2022/08/11 02:15:02;;;;;;;17.95;8.38;;;18.90;99.90;;;;;;5054389;28;20028;-72
2022/08/11 02:17:46;;;;;;;15.60;8.10;;;18.90;99.90;;;;;;5054328;28;20033;-69
2022/08/11 02:23:38;;;;;;;17.88;8.15;;;18.90;99.90;;;;;;5054551;28;20381;-71
2022/08/11 02:26:22;;;;;;;16.40;8.15;;;18.80;99.90;;;;;;5053753;28;20375;-70
2022/08/11 02:29:15;;;;;;;13.38;7.65;;;18.80;99.90;;;;;;5054089;28;20053;-68
2022/08/11 02:35:02;;;;;;;14.25;8.15;;;18.80;99.90;;;;;;5053803;28;20417;-70
2022/08/11 02:37:31;;;;;;;15.93;8.50;;;18.70;99.90;;;;;;5054034;28;20099;-68
2022/08/11 02:39:56;;;;;;;14.13;7.75;;;18.70;99.90;;;;;;5053803;28;20036;-69
2022/08/11 02:42:44;;;;;;;15.80;8.30;;;18.70;99.90;;;;;;5054087;28;20025;-68
2022/08/11 02:45:32;;;;;;;16.42;8.40;;;18.70;99.90;;;;;;5053558;28;20079;-67
2022/08/11 02:52:07;;;;;;;14.90;8.63;;;18.60;99.90;;;;;;5073350;28;20067;-68
2022/08/11 02:55:05;;;;;;;15.65;7.95;;;18.60;99.90;;;;;;5073532;28;20024;-68
2022/08/11 02:57:46;;;;;;;15.57;8.63;;;18.50;99.90;;;;;;5073450;28;20040;-69
2022/08/11 03:00:14;;;;;;;17.27;8.90;;;18.50;99.90;;;;;;5073305;28;20016;-69
2022/08/11 03:02:45;;;;;;;15.52;8.27;;;18.50;99.90;;;;;;5073465;28;20031;-70
2022/08/11 03:05:16;;;;;;;18.95;9.60;;;18.50;99.90;;;;;;5073631;28;20423;-68
2022/08/11 03:08:08;;;;;;;18.27;9.38;;;18.50;99.90;;;;;;5073350;28;20017;-71
2022/08/11 03:10:41;;;;;;;;;;;18.50;99.90;;;;;;5072330;28;20362;-68
2022/08/11 03:16:45;;;;;;;15.85;9.10;;;18.40;99.90;;;;;;5073179;28;20347;-68
2022/08/11 03:19:32;;;;;;;16.42;8.63;;;18.40;99.90;;;;;;5073337;28;20021;-68
2022/08/11 03:22:12;;;;;;;18.20;9.15;;;18.40;99.90;;;;;;5073283;28;20029;-68
2022/08/11 03:24:43;;;;;;;20.35;9.90;;;18.40;99.90;;;;;;5072594;28;20519;-68
2022/08/11 03:27:18;;;;;;;18.15;9.80;;;18.30;99.90;;;;;;5072615;28;20370;-68
2022/08/11 03:30:00;;;;;;;16.10;9.63;;;18.40;99.90;;;;;;5072911;28;20024;-68
2022/08/11 03:32:32;;;;;;;;;;;18.40;99.90;;;;;;5072128;28;20432;-70
2022/08/11 03:35:01;;;;;;;19.27;9.20;;;18.30;99.90;;;;;;5072783;28;19900;-70
2022/08/11 03:37:52;;;;;;;18.15;9.45;;;18.30;99.90;;;;;;5072993;28;20051;-70
2022/08/11 03:43:18;;;;;;;17.20;9.32;;;18.30;99.90;;;;;;5070709;28;20032;-68
2022/08/11 03:46:06;;;;;;;18.13;9.55;;;18.30;99.90;;;;;;5072398;28;20032;-71
2022/08/11 03:48:56;;;;;;;17.83;9.73;;;18.20;99.90;;;;;;5072982;28;20020;-67
2022/08/11 03:51:28;;;;;;;16.08;9.43;;;18.20;99.90;;;;;;5073211;28;20036;-68
2022/08/11 03:54:14;;;;;;;17.30;9.65;;;18.20;99.90;;;;;;5073052;28;20033;-68
2022/08/11 03:56:59;;;;;;;16.75;9.63;;;18.20;99.90;;;;;;5072889;28;20067;-70
2022/08/11 04:00:02;;;;;;;16.67;10.48;;;18.10;99.90;;;;;;5071504;28;20032;-68
2022/08/11 04:02:47;;;;;;;17.42;9.50;;;18.10;99.90;;;;;;5072746;28;20562;-68
2022/08/11 04:05:41;;;;;;;17.75;9.57;;;18.10;99.90;;;;;;5072624;28;20051;-70
2022/08/11 04:08:31;;;;;;;17.45;10.20;;;18.00;99.90;;;;;;5071235;28;20016;-71
2022/08/11 04:11:21;;;;;;;18.88;9.32;;;18.10;99.90;;;;;;5071935;28;20025;-67
2022/08/11 04:17:31;;;;;;;17.38;9.32;;;18.00;99.90;;;;;;5072703;28;20112;-71
2022/08/11 04:20:25;;;;;;;16.35;8.50;;;18.00;99.90;;;;;;5072510;28;20504;-70
2022/08/11 04:23:11;;;;;;;17.42;9.13;;;18.00;99.90;;;;;;5072000;28;20024;-68
2022/08/11 04:25:54;;;;;;;17.30;10.07;;;18.00;99.90;;;;;;5072317;28;20032;-68
2022/08/11 04:28:23;;;;;;;;;;;18.00;99.90;;;;;;5073060;28;20075;-67
2022/08/11 04:30:48;;;;;;;18.35;8.73;;;18.00;99.90;;;;;;5072292;28;19900;-72
2022/08/11 04:33:36;;;;;;;18.90;9.25;;;18.00;99.90;;;;;;5072270;28;20158;-68
2022/08/11 04:36:13;;;;;;;14.32;8.50;;;18.00;99.90;;;;;;5072429;28;20016;-73
2022/08/11 04:39:09;;;;;;;15.32;8.98;;;18.00;99.90;;;;;;5072413;28;20027;-68
2022/08/11 04:45:12;;;;;;;15.50;8.68;;;18.00;99.90;;;;;;5071915;28;20059;-68
2022/08/11 05:04:04;;;;;;;20.08;10.30;;;18.10;99.90;;;;;;5075880;28;20477;-68
2022/08/11 05:06:57;;;;;;;16.48;8.75;;;18.10;99.90;;;;;;5075698;28;20017;-68
2022/08/11 05:09:50;;;;;;;20.42;10.25;;;18.20;99.90;;;;;;5076006;28;20354;-70
2022/08/11 05:12:24;;;;;;;19.70;10.18;;;18.20;99.90;;;;;;5075960;28;20024;-72
2022/08/11 05:35:00;;;;;;;19.50;8.93;;;18.70;99.90;;;;;;5075318;28;20035;-72
2022/08/11 05:37:28;;;;;;;14.38;8.50;;;18.80;99.90;;;;;;5075414;28;20070;-73
2022/08/11 05:56:49;;;;;;;15.13;7.75;;;19.50;99.90;;;;;;5074657;28;20126;-68
2022/08/11 05:59:17;;;;;;;13.63;8.05;;;19.70;99.90;;;;;;5074849;28;20058;-72
2022/08/11 06:01:44;;;;;;;15.93;7.28;;;19.80;99.90;;;;;;5075229;28;20059;-68
2022/08/11 06:04:22;;;;;;;14.48;6.82;;;20.00;99.90;;;;;;5075134;28;20135;-71
2022/08/11 06:06:53;;;;;;;12.85;7.20;;;20.10;99.90;;;;;;5074478;28;20511;-69
2022/08/11 06:09:23;;;;;;;13.75;7.65;;;20.20;99.90;;;;;;5074738;28;20020;-67
2022/08/11 06:11:49;;;;;;;15.25;7.25;;;20.40;99.90;;;;;;5074914;28;20016;-73
2022/08/11 06:14:15;;;;;;;11.63;7.40;;;20.50;99.90;;;;;;5074521;28;20039;-67
2022/08/11 06:16:42;;;;;;;15.00;6.65;;;20.70;99.90;;;;;;5074964;28;20024;-70
2022/08/11 06:19:08;;;;;;;10.40;5.90;;;20.90;99.90;;;;;;5074864;28;20029;-70
2022/08/11 06:21:35;;;;;;;11.27;6.07;;;21.10;99.90;;;;;;5074543;28;20450;-67
2022/08/11 06:24:04;;;;;;;11.13;6.35;;;21.30;99.90;;;;;;5074518;28;20039;-68
2022/08/11 06:26:30;;;;;;;10.55;6.18;;;21.50;99.90;;;;;;5074413;28;20016;-71
2022/08/11 06:29:00;;;;;;;9.75;6.03;;;21.90;99.90;;;;;;5074402;28;20044;-71
2022/08/11 06:31:27;;;;;;;14.27;6.25;;;22.30;99.90;;;;;;5074420;28;20021;-66
2022/08/11 06:34:04;;;;;;;10.52;5.35;;;23.00;99.90;;;;;;5073980;28;20103;-71
2022/08/11 06:36:58;;;;;;;10.07;5.82;;;23.80;99.90;;;;;;5074605;28;20153;-70
2022/08/11 06:39:39;;;;;;;11.20;5.07;;;24.80;99.90;;;;;;5067114;28;20035;-70
2022/08/11 06:42:13;;;;;;;8.82;5.40;;;25.80;99.90;;;;;;5074270;28;20027;-72
2022/08/11 06:44:40;;;;;;;8.13;4.75;;;26.60;99.90;;;;;;5074228;28;20040;-68
2022/08/11 06:47:11;;;;;;;8.68;4.75;;;27.40;99.90;;;;;;5073985;28;20024;-72
2022/08/11 06:52:32;;;;;;;11.68;4.82;;;28.60;99.00;;;;;;5073379;28;20035;-67
2022/08/11 06:55:05;;;;;;;5.75;3.92;;;29.50;98.10;;;;;;5051995;28;20020;-67
2022/08/11 07:00:26;;;;;;;7.88;4.55;;;30.70;94.70;;;;;;5074072;28;20032;-67
2022/08/11 07:03:16;;;;;;;6.72;3.88;;;30.90;94.10;;;;;;5073590;28;20351;-68
2022/08/11 07:05:49;;;;;;;9.20;4.55;;;31.20;93.60;;;;;;5073641;28;20089;-68
2022/08/11 07:17:42;;;;;;;7.28;3.67;;;31.30;91.30;;;;;;5072475;28;20584;-69
2022/08/11 07:28:55;;;;;;;7.50;3.40;;;30.40;91.80;;;;;;5073555;28;20116;-67
2022/08/11 07:31:34;;;;;;;9.65;3.70;;;30.20;91.40;;;;;;5073240;28;20024;-72
2022/08/11 07:34:12;;;;;;;5.15;3.10;;;29.60;91.90;;;;;;5073153;28;20031;-68
2022/08/11 07:36:48;;;;;;;7.57;3.70;;;29.00;92.70;;;;;;5073431;28;20051;-69
2022/08/11 07:39:23;;;;;;;6.68;3.38;;;28.60;93.10;;;;;;5073473;28;20104;-68
2022/08/11 07:41:51;;;;;;;9.70;3.70;;;28.20;93.80;;;;;;5073516;28;20086;-67
2022/08/11 07:44:17;;;;;;;7.05;3.45;;;27.90;94.10;;;;;;5073383;28;20044;-70
2022/08/11 07:52:29;;;;;;;5.93;3.10;;;27.40;94.80;;;;;;5072342;28;20027;-68
2022/08/11 07:55:07;;;;;;;4.57;2.85;;;27.50;95.00;;;;;;5072989;28;20020;-67
2022/08/11 08:19:38;;;;;;;6.38;2.70;;;32.50;85.20;;;;;;5072797;28;20039;-67
2022/08/11 08:22:04;;;;;;;5.95;2.53;;;33.40;83.80;;;;;;5072772;28;20031;-71
2022/08/11 08:24:31;;;;;;;4.28;2.45;;;34.20;80.80;;;;;;5072344;28;20029;-71
2022/08/11 08:26:58;;;;;;;4.85;2.33;;;34.80;78.90;;;;;;5072394;28;20108;-69
2022/08/11 08:32:11;;;;;;;4.45;1.88;;;36.00;75.90;;;;;;5076439;28;20576;-71
2022/08/11 08:34:39;;;;;;;5.72;2.38;;;36.80;73.70;;;;;;5076616;28;20054;-72
2022/08/11 08:37:07;;;;;;;3.90;2.08;;;37.40;70.10;;;;;;5076624;28;20027;-69
2022/08/11 08:39:36;;;;;;;4.40;2.30;;;37.80;69.60;;;;;;5076336;28;20107;-68
2022/08/11 08:42:09;;;;;;;4.40;1.95;;;38.40;67.60;;;;;;5076547;28;20107;-68
2022/08/11 08:44:40;;;;;;;5.13;2.05;;;38.90;64.30;;;;;;5076569;28;20036;-68
2022/08/11 08:47:08;;;;;;;5.70;1.92;;;39.30;63.40;;;;;;5075528;28;20454;-69
2022/08/11 08:49:38;;;;;;;4.20;1.85;;;39.50;60.90;;;;;;5074706;28;20024;-68
2022/08/11 08:52:06;;;;;;;4.57;1.83;;;39.60;60.50;;;;;;5075281;28;20128;-69
2022/08/11 08:54:36;;;;;;;9.45;2.03;;;39.80;60.30;;;;;;5075033;28;20013;-70
2022/08/11 08:57:04;;;;;;;5.35;2.05;;;40.20;59.70;;;;;;5074968;28;20096;-68
2022/08/11 08:59:32;;;;;;;6.10;1.90;;;40.60;58.20;;;;;;5074913;28;20021;-68
2022/08/11 09:02:01;;;;;;;3.45;1.63;;;40.90;56.50;;;;;;5074818;28;20085;-68
2022/08/11 09:04:28;;;;;;;4.07;1.80;;;41.10;55.90;;;;;;5072833;28;20450;-68
2022/08/11 09:06:57;;;;;;;3.85;1.63;;;41.30;55.50;;;;;;5074803;28;20024;-69
2022/08/11 09:09:23;;;;;;;3.08;1.85;;;41.50;55.00;;;;;;5074923;28;20103;-69
2022/08/11 09:11:49;;;;;;;8.40;1.90;;;41.90;54.30;;;;;;5074476;28;20024;-70
2022/08/11 09:14:59;;;;;;;5.38;1.60;;;42.10;52.90;;;;;;5074487;28;20519;-69
2022/08/11 09:17:32;;;;;;;9.18;2.03;;;42.20;51.90;;;;;;5074741;28;20048;-72
2022/08/11 09:20:07;;;;;;;2.67;1.65;;;42.00;50.60;;;;;;5072894;28;20020;-68
2022/08/11 09:28:19;;;;;;;3.45;1.60;;;41.90;50.00;;;;;;5076239;28;20043;-72
2022/08/11 09:30:54;;;;;;;7.73;1.83;;;42.20;49.30;;;;;;5072067;28;20190;-70
2022/08/11 09:33:22;;;;;;;4.97;1.70;;;42.40;49.00;;;;;;5072927;28;20031;-68
2022/08/11 09:35:51;;;;;;;2.08;1.65;;;42.80;48.50;;;;;;5075335;28;20350;-67
2022/08/11 09:41:04;;;;;;;4.65;1.70;;;43.20;47.20;;;;;;5074520;28;20158;-68
2022/08/11 09:46:23;;;;;;;5.82;1.83;;;43.20;44.90;;;;;;5075465;28;20044;-70
2022/08/11 09:48:49;;;;;;;3.42;1.70;;;42.90;45.30;;;;;;5075174;28;20382;-70
2022/08/11 09:51:16;;;;;;;6.47;1.75;;;43.00;44.60;;;;;;5075532;28;20012;-71
2022/08/11 09:53:43;;;;;;;2.47;1.45;;;43.00;44.40;;;;;;5074969;28;20515;-68
2022/08/11 09:59:00;;;;;;;;;;;42.90;44.60;;;;;;5075597;28;20051;-68
2022/08/11 10:01:34;;;;;;;3.83;1.77;;;43.10;44.50;;;;;;5074189;28;19904;-68
2022/08/11 10:04:07;;;;;;;3.67;1.38;;;43.00;44.30;;;;;;5075210;28;20031;-68
2022/08/11 10:09:22;;;;;;;8.20;1.90;;;43.00;44.30;;;;;;5075189;28;20423;-67
2022/08/11 10:11:50;;;;;;;5.40;1.67;;;43.00;44.10;;;;;;5075086;28;20485;-67
2022/08/11 10:17:06;;;;;;;2.42;1.60;;;43.30;43.90;;;;;;5075002;28;20397;-68
2022/08/11 10:19:37;;;;;;;4.10;1.70;;;43.50;43.90;;;;;;5074763;28;20389;-68
2022/08/11 10:27:37;;;;;;;6.25;1.80;;;43.90;42.70;;;;;;5074473;28;20090;-68
2022/08/11 10:35:34;;;;;;;4.45;1.50;;;44.00;43.00;;;;;;5074714;28;20066;-67
2022/08/11 10:38:01;;;;;;;2.15;1.55;;;43.90;42.50;;;;;;5074031;28;20637;-66
2022/08/11 10:40:27;;;;;;;3.33;1.80;;;43.70;42.20;;;;;;5074454;28;20032;-69
2022/08/11 10:43:11;;;;;;;2.45;1.67;;;43.50;42.90;;;;;;5073262;28;20393;-71
2022/08/11 10:48:26;;;;;;;3.58;1.80;;;43.50;43.80;;;;;;5073972;28;20078;-67
2022/08/11 10:51:12;;;;;;;5.28;1.70;;;43.80;42.70;;;;;;5054944;28;20100;-68
2022/08/11 10:59:25;;;;;;;5.95;2.10;;;44.30;43.40;;;;;;5053715;28;20072;-67
2022/08/11 11:01:52;;;;;;;4.70;1.85;;;44.10;43.40;;;;;;5072455;28;20454;-67
2022/08/11 11:04:26;;;;;;;2.50;1.80;;;43.90;43.30;;;;;;5073539;28;20101;-67
2022/08/11 11:07:19;;;;;;;4.85;2.15;;;43.50;44.00;;;;;;5073712;28;20021;-69
2022/08/11 11:09:58;;;;;;;5.80;2.10;;;43.20;44.20;;;;;;5059947;28;20496;-69
2022/08/11 11:18:28;;;;;;;10.32;2.25;;;43.50;43.50;;;;;;5066336;28;20036;-67
2022/08/11 11:21:17;;;;;;;4.15;2.00;;;43.60;43.90;;;;;;5069439;28;20024;-67
2022/08/11 11:24:10;;;;;;;6.82;1.70;;;44.00;43.40;;;;;;5070172;28;20062;-67
2022/08/11 11:27:02;;;;;;;6.32;2.00;;;44.20;43.60;;;;;;5069607;28;20343;-68
2022/08/11 11:29:53;;;;;;;6.80;2.00;;;44.00;44.00;;;;;;5071340;28;20086;-67
2022/08/11 11:32:34;;;;;;;7.25;2.25;;;44.10;44.00;;;;;;5068522;28;20040;-67
2022/08/11 11:35:22;;;;;;;4.75;2.05;;;44.10;44.50;;;;;;5069945;28;20059;-66
2022/08/11 11:37:50;;;;;;;3.38;2.22;;;44.00;44.10;;;;;;5071399;28;20039;-68
2022/08/11 11:40:21;;;;;;;6.63;2.10;;;44.10;44.10;;;;;;5068984;28;20017;-68
2022/08/11 11:42:48;;;;;;;4.20;2.00;;;44.10;43.20;;;;;;5071894;28;20024;-70
2022/08/11 11:45:19;;;;;;;8.20;2.30;;;44.10;42.60;;;;;;5069096;28;20021;-68
2022/08/11 11:47:52;;;;;;;2.55;2.10;;;44.30;42.40;;;;;;5071818;28;20052;-66
2022/08/11 11:50:35;;;;;;;3.90;2.17;;;44.40;42.30;;;;;;5069755;28;20116;-67
2022/08/11 11:53:04;;;;;;;6.88;2.13;;;44.50;42.80;;;;;;5068465;28;20339;-69
2022/08/11 11:55:30;;;;;;;5.30;1.90;;;44.60;42.60;;;;;;5071470;28;20442;-67
2022/08/11 12:03:30;;;;;;;4.32;2.20;;;44.60;41.70;;;;;;5070183;28;20724;-66
2022/08/11 12:05:57;;;;;;;2.40;1.77;;;44.70;42.10;;;;;;5062897;28;20382;-68
2022/08/11 12:08:24;;;;;;;2.00;1.80;;;44.70;41.20;;;;;;5064794;28;20496;-66
2022/08/11 12:13:44;;;;;;;3.78;2.10;;;44.40;41.30;;;;;;5052460;28;20063;-66
2022/08/11 12:16:12;;;;;;;6.70;2.33;;;44.50;41.80;;;;;;5052853;28;20094;-67
2022/08/11 12:18:39;;;;;;;5.43;2.45;;;44.40;41.10;;;;;;5052812;28;20020;-67
2022/08/11 12:21:06;;;;;;;2.20;1.80;;;44.30;41.90;;;;;;5052661;28;20017;-66
2022/08/11 12:29:08;;;;;;;6.43;2.50;;;44.30;41.60;;;;;;5070204;28;20023;-70
2022/08/11 12:31:36;;;;;;;5.05;2.03;;;44.40;42.00;;;;;;5072481;28;20370;-68
2022/08/11 12:34:06;;;;;;;6.25;1.90;;;44.40;41.50;;;;;;5072615;28;20028;-66
2022/08/11 12:36:42;;;;;;;3.87;2.10;;;44.20;41.20;;;;;;5072254;28;20402;-69
2022/08/11 12:39:17;;;;;;;6.57;2.15;;;44.10;41.80;;;;;;5072753;28;20261;-67
2022/08/11 12:47:19;;;;;;;4.80;1.88;;;44.20;41.30;;;;;;5071817;28;20031;-67
2022/08/11 12:52:42;;;;;;;4.85;2.10;;;43.50;40.50;;;;;;5051347;28;20040;-71
2022/08/11 12:58:14;;;;;;;3.80;2.20;;;42.60;42.10;;;;;;5052364;28;20068;-71
2022/08/11 13:06:22;;;;;;;4.05;1.95;;;40.40;43.30;;;;;;5050596;28;20083;-67
2022/08/11 13:08:48;;;;;;;5.25;2.20;;;40.00;43.60;;;;;;5064385;28;20434;-67
2022/08/11 13:14:01;;;;;;;6.43;2.42;;;39.30;43.80;;;;;;5072830;28;20153;-67
2022/08/11 13:17:19;;;;;;;6.38;2.00;;;39.00;44.70;;;;;;5075909;28;20511;-70
2022/08/11 13:19:19;;;;;;;4.18;1.92;;;38.70;45.30;;;;;;5075942;28;20115;-67
2022/08/11 13:21:47;;;;;;;5.72;2.00;;;38.30;46.30;;;;;;5075848;28;20134;-66
2022/08/11 13:24:13;;;;;;;3.03;1.80;;;37.90;46.70;;;;;;5074652;28;20048;-68
2022/08/11 13:26:39;;;;;;;4.55;2.22;;;37.50;46.80;;;;;;5076202;28;20438;-69
2022/08/11 13:29:05;;;;;;;4.53;1.90;;;37.20;47.30;;;;;;5075807;28;20021;-66
2022/08/11 13:31:32;;;;;;;9.45;2.45;;;36.90;47.50;;;;;;5075668;28;20017;-68
2022/08/11 13:33:59;;;;;;;3.63;1.92;;;36.70;47.30;;;;;;5076101;28;20449;-67
2022/08/11 13:36:27;;;;;;;6.00;2.20;;;36.40;47.00;;;;;;5075322;28;20378;-70
2022/08/11 13:38:57;;;;;;;8.93;2.50;;;36.10;47.50;;;;;;5075689;28;20028;-68
2022/08/11 13:41:40;;;;;;;4.70;2.60;;;36.00;47.80;;;;;;5075669;28;20028;-67
2022/08/11 13:44:08;;;;;;;5.35;2.20;;;35.90;47.90;;;;;;5075572;28;20107;-67
2022/08/11 13:46:35;;;;;;;7.28;2.50;;;35.80;48.50;;;;;;5075344;28;20021;-67
2022/08/11 13:49:00;;;;;;;5.95;2.42;;;35.60;48.60;;;;;;5076089;28;20020;-68
2022/08/11 13:51:31;;;;;;;3.92;2.40;;;35.60;49.10;;;;;;5075047;28;20024;-67
2022/08/11 13:54:04;;;;;;;3.80;2.42;;;35.50;49.30;;;;;;5075457;28;20052;-70
2022/08/11 13:56:32;;;;;;;7.30;2.28;;;35.40;49.10;;;;;;5075261;28;20064;-65
2022/08/11 13:58:59;;;;;;;3.58;2.00;;;35.40;49.00;;;;;;5075407;28;20070;-68
2022/08/11 14:01:29;;;;;;;5.68;2.63;;;35.30;49.00;;;;;;5073566;28;20025;-66
2022/08/11 14:04:03;;;;;;;9.13;2.60;;;35.30;49.10;;;;;;5073707;28;20025;-66
2022/08/11 14:06:29;;;;;;;6.55;1.90;;;35.20;49.20;;;;;;5073776;28;20017;-67
2022/08/11 14:08:56;;;;;;;6.65;2.70;;;35.10;49.00;;;;;;5075121;28;20044;-67
2022/08/11 14:14:08;;;;;;;2.17;1.98;;;34.90;49.30;;;;;;5074732;28;20101;-67
2022/08/11 14:16:41;;;;;;;4.75;2.30;;;34.90;49.40;;;;;;5074101;28;20382;-69
2022/08/11 14:19:11;;;;;;;3.67;2.15;;;34.90;49.00;;;;;;5074415;28;20028;-68
2022/08/11 14:24:26;;;;;;;5.82;2.00;;;34.90;49.80;;;;;;5057546;28;20028;-67
2022/08/11 14:26:52;;;;;;;2.97;2.00;;;34.80;50.00;;;;;;5069675;28;20021;-68
2022/08/11 14:29:25;;;;;;;3.67;2.40;;;34.80;49.90;;;;;;5074109;28;20766;-67
2022/08/11 14:31:56;;;;;;;4.47;2.13;;;34.60;50.10;;;;;;5074304;28;20409;-67
2022/08/11 14:34:25;;;;;;;4.03;1.98;;;34.40;50.70;;;;;;5074240;28;20028;-67
2022/08/11 14:36:57;;;;;;;3.67;2.08;;;34.30;49.80;;;;;;5074395;28;20108;-67
2022/08/11 14:39:34;;;;;;;3.65;1.67;;;34.20;50.10;;;;;;5074691;28;20028;-67
2022/08/11 14:47:42;;;;;;;3.35;1.77;;;33.80;50.60;;;;;;5074690;28;20031;-67
2022/08/11 14:50:12;;;;;;;4.90;1.73;;;33.70;50.70;;;;;;5073957;28;20024;-69
2022/08/11 14:52:58;;;;;;;3.83;1.70;;;33.60;51.00;;;;;;5073927;28;20017;-67
2022/08/11 14:58:17;;;;;;;5.60;2.05;;;33.60;50.60;;;;;;5073429;28;20051;-68
2022/08/11 15:00:43;;;;;;;2.53;1.75;;;33.60;51.10;;;;;;5073125;28;20016;-66
2022/08/11 15:03:14;;;;;;;3.78;1.60;;;33.50;50.60;;;;;;5073373;28;20029;-67
2022/08/11 15:05:51;;;;;;;6.47;2.00;;;33.30;50.80;;;;;;5073869;28;20023;-69
2022/08/11 15:08:18;;;;;;;2.28;1.58;;;33.20;50.90;;;;;;5074091;28;20024;-67
2022/08/11 15:10:46;;;;;;;3.70;2.00;;;33.20;50.90;;;;;;5073396;28;20033;-66
2022/08/11 15:13:17;;;;;;;3.78;1.70;;;33.10;51.00;;;;;;5072405;28;20125;-67
2022/08/11 15:18:28;;;;;;;6.65;2.05;;;33.00;51.50;;;;;;5073663;28;20055;-67
2022/08/11 15:37:41;;;;;;;5.63;1.77;;;32.30;52.30;;;;;;5072848;28;20122;-68
2022/08/11 15:46:49;;;;;;;4.25;1.80;;;32.20;52.30;;;;;;5053616;28;20444;-67
2022/08/11 15:49:23;;;;;;;6.43;2.07;;;32.20;52.50;;;;;;5042943;28;20039;-70
2022/08/11 15:51:52;;;;;;;3.75;1.88;;;32.20;52.80;;;;;;5053243;28;20021;-67
2022/08/11 15:54:22;;;;;;;4.53;2.00;;;32.20;53.40;;;;;;5052970;28;20093;-68
2022/08/11 15:56:50;;;;;;;2.90;1.77;;;32.20;53.70;;;;;;5052523;28;20025;-67
2022/08/11 16:04:50;;;;;;;3.00;1.88;;;32.00;53.70;;;;;;5060245;28;20107;-67
2022/08/11 16:07:24;;;;;;;5.13;2.00;;;31.90;53.20;;;;;;5053005;28;20021;-69
2022/08/11 16:10:23;;;;;;;3.28;1.83;;;31.90;53.80;;;;;;5053102;28;20059;-67
2022/08/11 16:18:21;;;;;;;3.92;1.67;;;31.90;55.00;;;;;;5053277;28;20039;-68
2022/08/11 16:20:50;;;;;;;5.82;2.53;;;31.80;54.30;;;;;;5053061;28;20010;-68
2022/08/11 16:23:17;;;;;;;3.30;1.73;;;31.80;54.70;;;;;;5054738;28;20408;-68
2022/08/11 16:25:45;;;;;;;5.55;1.73;;;31.80;55.00;;;;;;5072169;28;20020;-67
2022/08/11 16:28:13;;;;;;;6.22;2.10;;;31.80;55.40;;;;;;5072499;28;20031;-68
2022/08/11 16:30:42;;;;;;;4.85;2.15;;;31.70;55.40;;;;;;5072587;28;20020;-67
2022/08/11 16:33:10;;;;;;;5.82;1.90;;;31.70;56.00;;;;;;5072692;28;20024;-67
2022/08/11 16:38:34;;;;;;;4.45;1.73;;;31.70;55.80;;;;;;5059437;28;20489;-70
2022/08/11 16:41:08;;;;;;;5.15;2.10;;;31.50;56.20;;;;;;5072730;28;20147;-71
2022/08/11 16:49:37;;;;;;;2.92;1.48;;;31.40;56.30;;;;;;5072865;28;20032;-66
2022/08/11 16:52:10;;;;;;;2.70;2.10;;;31.30;56.90;;;;;;5076098;28;20028;-69
2022/08/11 16:54:37;;;;;;;5.30;2.38;;;31.20;57.00;;;;;;5076518;28;20029;-70
2022/08/11 17:00:05;;;;;;;4.05;1.80;;;31.10;57.10;;;;;;5038691;28;20140;-68
2022/08/11 17:14:11;;;;;;;3.08;1.75;;;30.90;57.80;;;;;;5075911;28;20023;-71
2022/08/11 17:16:39;;;;;;;2.50;1.90;;;30.80;58.40;;;;;;5075558;28;20363;-68
2022/08/11 17:19:12;;;;;;;6.45;2.80;;;30.70;58.80;;;;;;5074648;28;20460;-68
2022/08/11 17:24:27;;;;;;;2.13;1.90;;;30.70;59.10;;;;;;5075775;28;20487;-68
2022/08/11 17:26:57;;;;;;;3.85;2.00;;;30.70;58.90;;;;;;5075688;28;20070;-67
2022/08/11 17:29:37;;;;;;;3.22;1.80;;;30.60;59.00;;;;;;5074695;28;20032;-67
2022/08/11 17:35:32;;;;;;;2.88;1.85;;;30.60;60.30;;;;;;5020786;28;20142;-67
2022/08/11 17:38:00;;;;;;;4.60;2.20;;;30.50;61.90;;;;;;5075772;28;20511;-70
2022/08/11 17:40:27;;;;;;;4.40;2.47;;;30.50;62.60;;;;;;5075647;28;20036;-68
2022/08/11 17:48:31;;;;;;;5.72;3.15;;;30.20;64.40;;;;;;5075662;28;20489;-71
2022/08/11 17:51:05;;;;;;;4.03;2.22;;;30.10;66.10;;;;;;5075287;28;20043;-68
2022/08/11 18:03:28;;;;;;;4.20;1.80;;;29.60;70.10;;;;;;5074212;28;20172;-68
2022/08/11 18:04:49;;;;;;;7.20;2.45;;;29.40;70.80;;;;;;5074773;28;20032;-67
